Progress Acres, Indiana
Current Conditions -  °F | °C
As of 8:53 AM on Monday 24 Nov 2014 (Local Time) from KHUF Reporting Station
Light Rain Light Rain  
Wind Chill: 30°   Ceiling: 1300
Heat Index: 41°   Visibility: 10mi
Dew Point: 37°   Wind: 29mph
Humidity: 86%   Direction: 260°W
Pressure: 29.38"   Gusts: 36mph
Location:  39.543°N, 87.3153°W
Report Text: KHUF 241353Z 26025G31KT 10SM -RA BKN013 OVC018 05/03 A2938 RMK AO2 PK WND 24032/1255 PRESRR SLP951 P0000 T00500028 $
Loading
Personal Weather Stations






























Interactive Weather Map New forecast layout! Learn more

10-Day Weather Forecast

Advertisements
Track Severe Weather on mobile